sensor_id;sensor_type;location;lat;lon;timestamp;P1;durP1;ratioP1;P2;durP2;ratioP2
71637;SDS011;59485;43.542;-5.676;2022-07-25T00:02:03;8.90;;;3.95;;
71637;SDS011;59485;43.542;-5.676;2022-07-25T00:04:29;8.80;;;4.30;;
71637;SDS011;59485;43.542;-5.676;2022-07-25T00:06:54;8.90;;;3.93;;
71637;SDS011;59485;43.542;-5.676;2022-07-25T00:09:20;8.07;;;3.72;;
71637;SDS011;59485;43.542;-5.676;2022-07-25T00:11:45;12.63;;;4.00;;
71637;SDS011;59485;43.542;-5.676;2022-07-25T00:14:11;7.40;;;4.40;;
71637;SDS011;59485;43.542;-5.676;2022-07-25T00:16:37;8.02;;;3.92;;
71637;SDS011;59485;43.542;-5.676;2022-07-25T00:19:02;8.90;;;4.07;;
71637;SDS011;59485;43.542;-5.676;2022-07-25T00:21:28;11.43;;;5.18;;
71637;SDS011;59485;43.542;-5.676;2022-07-25T00:23:53;6.43;;;3.83;;
71637;SDS011;59485;43.542;-5.676;2022-07-25T00:26:19;12.07;;;5.60;;
71637;SDS011;59485;43.542;-5.676;2022-07-25T00:28:44;10.68;;;4.47;;
71637;SDS011;59485;43.542;-5.676;2022-07-25T00:31:10;9.40;;;4.40;;
71637;SDS011;59485;43.542;-5.676;2022-07-25T00:33:35;11.27;;;5.53;;
71637;SDS011;59485;43.542;-5.676;2022-07-25T00:36:01;14.47;;;5.40;;
71637;SDS011;59485;43.542;-5.676;2022-07-25T00:38:26;11.55;;;4.95;;
71637;SDS011;59485;43.542;-5.676;2022-07-25T00:40:52;10.87;;;5.27;;
71637;SDS011;59485;43.542;-5.676;2022-07-25T00:43:18;9.88;;;4.57;;
71637;SDS011;59485;43.542;-5.676;2022-07-25T00:45:44;9.10;;;4.87;;
71637;SDS011;59485;43.542;-5.676;2022-07-25T00:48:09;10.47;;;4.50;;
71637;SDS011;59485;43.542;-5.676;2022-07-25T00:50:35;12.77;;;4.40;;
71637;SDS011;59485;43.542;-5.676;2022-07-25T00:53:00;8.70;;;4.80;;
71637;SDS011;59485;43.542;-5.676;2022-07-25T00:55:26;13.25;;;5.57;;
71637;SDS011;59485;43.542;-5.676;2022-07-25T00:57:53;12.77;;;5.18;;
71637;SDS011;59485;43.542;-5.676;2022-07-25T01:00:18;12.53;;;5.23;;
71637;SDS011;59485;43.542;-5.676;2022-07-25T01:02:44;12.02;;;5.55;;
71637;SDS011;59485;43.542;-5.676;2022-07-25T01:05:10;8.77;;;4.47;;
71637;SDS011;59485;43.542;-5.676;2022-07-25T01:07:36;11.27;;;5.03;;
71637;SDS011;59485;43.542;-5.676;2022-07-25T01:10:03;9.95;;;4.53;;
71637;SDS011;59485;43.542;-5.676;2022-07-25T01:12:29;12.13;;;5.07;;
71637;SDS011;59485;43.542;-5.676;2022-07-25T01:14:55;9.70;;;4.30;;
71637;SDS011;59485;43.542;-5.676;2022-07-25T01:17:21;11.05;;;4.28;;
71637;SDS011;59485;43.542;-5.676;2022-07-25T01:19:46;9.60;;;3.67;;
71637;SDS011;59485;43.542;-5.676;2022-07-25T01:22:12;8.47;;;3.93;;
71637;SDS011;59485;43.542;-5.676;2022-07-25T01:24:38;6.20;;;3.42;;
71637;SDS011;59485;43.542;-5.676;2022-07-25T01:27:03;6.33;;;3.20;;
71637;SDS011;59485;43.542;-5.676;2022-07-25T01:29:29;6.82;;;3.58;;
71637;SDS011;59485;43.542;-5.676;2022-07-25T01:31:55;7.60;;;3.57;;
71637;SDS011;59485;43.542;-5.676;2022-07-25T01:34:20;6.57;;;2.83;;
71637;SDS011;59485;43.542;-5.676;2022-07-25T01:36:46;10.80;;;3.47;;
71637;SDS011;59485;43.542;-5.676;2022-07-25T01:39:11;7.37;;;3.07;;
71637;SDS011;59485;43.542;-5.676;2022-07-25T01:41:37;10.38;;;4.15;;
71637;SDS011;59485;43.542;-5.676;2022-07-25T01:44:02;10.30;;;3.47;;
71637;SDS011;59485;43.542;-5.676;2022-07-25T01:46:28;9.63;;;4.40;;
71637;SDS011;59485;43.542;-5.676;2022-07-25T01:48:54;10.95;;;4.05;;
71637;SDS011;59485;43.542;-5.676;2022-07-25T01:51:19;14.00;;;5.40;;
71637;SDS011;59485;43.542;-5.676;2022-07-25T01:53:45;12.80;;;5.60;;
71637;SDS011;59485;43.542;-5.676;2022-07-25T01:56:10;20.77;;;7.25;;
71637;SDS011;59485;43.542;-5.676;2022-07-25T01:58:36;12.07;;;6.30;;
71637;SDS011;59485;43.542;-5.676;2022-07-25T02:01:01;13.73;;;6.43;;
71637;SDS011;59485;43.542;-5.676;2022-07-25T02:03:27;10.88;;;5.88;;
71637;SDS011;59485;43.542;-5.676;2022-07-25T02:05:59;12.63;;;5.72;;
71637;SDS011;59485;43.542;-5.676;2022-07-25T02:08:26;14.90;;;6.05;;
71637;SDS011;59485;43.542;-5.676;2022-07-25T02:10:52;13.38;;;6.25;;
71637;SDS011;59485;43.542;-5.676;2022-07-25T02:13:18;12.47;;;6.17;;
71637;SDS011;59485;43.542;-5.676;2022-07-25T02:15:44;13.65;;;5.80;;
71637;SDS011;59485;43.542;-5.676;2022-07-25T02:18:10;12.00;;;5.57;;
71637;SDS011;59485;43.542;-5.676;2022-07-25T02:20:35;9.97;;;4.40;;
71637;SDS011;59485;43.542;-5.676;2022-07-25T02:23:01;10.40;;;4.33;;
71637;SDS011;59485;43.542;-5.676;2022-07-25T02:25:27;10.32;;;4.32;;
71637;SDS011;59485;43.542;-5.676;2022-07-25T02:27:53;9.93;;;4.30;;
71637;SDS011;59485;43.542;-5.676;2022-07-25T02:30:19;7.72;;;4.35;;
71637;SDS011;59485;43.542;-5.676;2022-07-25T02:32:44;10.20;;;4.10;;
71637;SDS011;59485;43.542;-5.676;2022-07-25T02:35:10;10.27;;;4.27;;
71637;SDS011;59485;43.542;-5.676;2022-07-25T02:37:35;9.38;;;4.70;;
71637;SDS011;59485;43.542;-5.676;2022-07-25T02:40:01;11.27;;;4.57;;
71637;SDS011;59485;43.542;-5.676;2022-07-25T02:42:26;9.18;;;4.20;;
71637;SDS011;59485;43.542;-5.676;2022-07-25T02:44:52;8.50;;;4.20;;
71637;SDS011;59485;43.542;-5.676;2022-07-25T02:47:17;7.23;;;4.33;;
71637;SDS011;59485;43.542;-5.676;2022-07-25T02:49:43;7.97;;;3.63;;
71637;SDS011;59485;43.542;-5.676;2022-07-25T02:52:08;7.33;;;4.30;;
71637;SDS011;59485;43.542;-5.676;2022-07-25T02:54:34;8.47;;;4.47;;
71637;SDS011;59485;43.542;-5.676;2022-07-25T02:56:59;10.63;;;4.33;;
71637;SDS011;59485;43.542;-5.676;2022-07-25T02:59:25;8.95;;;3.75;;
71637;SDS011;59485;43.542;-5.676;2022-07-25T03:01:50;10.27;;;4.87;;
71637;SDS011;59485;43.542;-5.676;2022-07-25T03:04:16;7.50;;;4.03;;
71637;SDS011;59485;43.542;-5.676;2022-07-25T03:06:41;7.43;;;4.13;;
71637;SDS011;59485;43.542;-5.676;2022-07-25T03:09:07;10.23;;;4.33;;
71637;SDS011;59485;43.542;-5.676;2022-07-25T03:11:32;8.97;;;4.80;;
71637;SDS011;59485;43.542;-5.676;2022-07-25T03:13:58;9.15;;;4.85;;
71637;SDS011;59485;43.542;-5.676;2022-07-25T03:16:24;9.48;;;4.38;;
71637;SDS011;59485;43.542;-5.676;2022-07-25T03:18:50;9.60;;;4.60;;
71637;SDS011;59485;43.542;-5.676;2022-07-25T03:21:16;11.07;;;5.03;;
71637;SDS011;59485;43.542;-5.676;2022-07-25T03:23:41;8.43;;;4.20;;
71637;SDS011;59485;43.542;-5.676;2022-07-25T03:26:07;8.95;;;4.55;;
71637;SDS011;59485;43.542;-5.676;2022-07-25T03:28:33;8.67;;;5.47;;
71637;SDS011;59485;43.542;-5.676;2022-07-25T03:30:58;9.02;;;4.38;;
71637;SDS011;59485;43.542;-5.676;2022-07-25T03:33:24;6.67;;;4.30;;
71637;SDS011;59485;43.542;-5.676;2022-07-25T03:35:49;7.50;;;4.80;;
71637;SDS011;59485;43.542;-5.676;2022-07-25T03:38:16;9.13;;;4.53;;
71637;SDS011;59485;43.542;-5.676;2022-07-25T03:40:41;7.77;;;4.00;;
71637;SDS011;59485;43.542;-5.676;2022-07-25T03:43:07;8.48;;;4.97;;
71637;SDS011;59485;43.542;-5.676;2022-07-25T03:45:32;8.27;;;5.47;;
71637;SDS011;59485;43.542;-5.676;2022-07-25T03:47:58;10.02;;;4.65;;
71637;SDS011;59485;43.542;-5.676;2022-07-25T03:50:24;8.30;;;5.10;;
71637;SDS011;59485;43.542;-5.676;2022-07-25T03:52:49;10.00;;;5.37;;
71637;SDS011;59485;43.542;-5.676;2022-07-25T03:55:15;9.18;;;5.03;;
71637;SDS011;59485;43.542;-5.676;2022-07-25T03:57:40;9.07;;;5.27;;
71637;SDS011;59485;43.542;-5.676;2022-07-25T04:00:06;12.27;;;5.53;;
71637;SDS011;59485;43.542;-5.676;2022-07-25T04:02:34;9.73;;;5.13;;
71637;SDS011;59485;43.542;-5.676;2022-07-25T04:05:02;9.15;;;6.20;;
71637;SDS011;59485;43.542;-5.676;2022-07-25T04:07:28;9.52;;;6.03;;
71637;SDS011;59485;43.542;-5.676;2022-07-25T04:09:54;9.43;;;5.17;;
71637;SDS011;59485;43.542;-5.676;2022-07-25T04:12:19;10.25;;;5.70;;
71637;SDS011;59485;43.542;-5.676;2022-07-25T04:14:45;10.20;;;6.00;;
71637;SDS011;59485;43.542;-5.676;2022-07-25T04:17:11;9.70;;;6.00;;
71637;SDS011;59485;43.542;-5.676;2022-07-25T04:19:36;9.80;;;6.07;;
71637;SDS011;59485;43.542;-5.676;2022-07-25T04:22:02;9.70;;;5.90;;
71637;SDS011;59485;43.542;-5.676;2022-07-25T04:24:27;12.45;;;5.63;;
71637;SDS011;59485;43.542;-5.676;2022-07-25T04:26:53;11.37;;;6.30;;
71637;SDS011;59485;43.542;-5.676;2022-07-25T04:29:18;11.90;;;6.13;;
71637;SDS011;59485;43.542;-5.676;2022-07-25T04:31:44;9.98;;;5.68;;
71637;SDS011;59485;43.542;-5.676;2022-07-25T04:34:10;9.67;;;5.00;;
71637;SDS011;59485;43.542;-5.676;2022-07-25T04:36:35;8.63;;;5.83;;
71637;SDS011;59485;43.542;-5.676;2022-07-25T04:39:00;11.23;;;5.43;;
71637;SDS011;59485;43.542;-5.676;2022-07-25T04:41:26;11.00;;;6.40;;
71637;SDS011;59485;43.542;-5.676;2022-07-25T04:43:51;12.07;;;5.73;;
71637;SDS011;59485;43.542;-5.676;2022-07-25T04:46:18;9.65;;;5.35;;
71637;SDS011;59485;43.542;-5.676;2022-07-25T04:48:47;9.93;;;5.60;;
71637;SDS011;59485;43.542;-5.676;2022-07-25T04:51:13;11.53;;;5.60;;
71637;SDS011;59485;43.542;-5.676;2022-07-25T04:53:39;10.13;;;5.50;;
71637;SDS011;59485;43.542;-5.676;2022-07-25T04:56:05;10.70;;;6.17;;
71637;SDS011;59485;43.542;-5.676;2022-07-25T04:58:31;11.70;;;5.47;;
71637;SDS011;59485;43.542;-5.676;2022-07-25T05:00:56;11.35;;;5.40;;
71637;SDS011;59485;43.542;-5.676;2022-07-25T05:03:22;9.80;;;5.70;;
71637;SDS011;59485;43.542;-5.676;2022-07-25T05:05:49;9.02;;;5.72;;
71637;SDS011;59485;43.542;-5.676;2022-07-25T05:08:14;10.75;;;6.20;;
71637;SDS011;59485;43.542;-5.676;2022-07-25T05:10:40;9.20;;;5.30;;
71637;SDS011;59485;43.542;-5.676;2022-07-25T05:13:06;9.85;;;5.82;;
71637;SDS011;59485;43.542;-5.676;2022-07-25T05:15:41;10.85;;;5.55;;
71637;SDS011;59485;43.542;-5.676;2022-07-25T05:18:07;9.88;;;5.50;;
71637;SDS011;59485;43.542;-5.676;2022-07-25T05:20:32;11.13;;;5.77;;
71637;SDS011;59485;43.542;-5.676;2022-07-25T05:22:58;12.33;;;6.33;;
71637;SDS011;59485;43.542;-5.676;2022-07-25T05:25:23;9.85;;;6.57;;
71637;SDS011;59485;43.542;-5.676;2022-07-25T05:27:49;12.67;;;6.77;;
71637;SDS011;59485;43.542;-5.676;2022-07-25T05:30:15;13.38;;;6.78;;
71637;SDS011;59485;43.542;-5.676;2022-07-25T05:32:41;13.77;;;7.20;;
71637;SDS011;59485;43.542;-5.676;2022-07-25T05:35:07;10.23;;;5.97;;
71637;SDS011;59485;43.542;-5.676;2022-07-25T05:37:34;13.88;;;6.65;;
71637;SDS011;59485;43.542;-5.676;2022-07-25T05:40:00;15.13;;;6.40;;
71637;SDS011;59485;43.542;-5.676;2022-07-25T05:42:26;11.70;;;6.35;;
71637;SDS011;59485;43.542;-5.676;2022-07-25T05:44:52;13.27;;;6.05;;
71637;SDS011;59485;43.542;-5.676;2022-07-25T05:47:18;15.60;;;7.00;;
71637;SDS011;59485;43.542;-5.676;2022-07-25T05:49:43;13.50;;;7.03;;
71637;SDS011;59485;43.542;-5.676;2022-07-25T05:52:09;15.32;;;7.53;;
71637;SDS011;59485;43.542;-5.676;2022-07-25T05:54:34;20.07;;;8.83;;
71637;SDS011;59485;43.542;-5.676;2022-07-25T05:57:00;13.60;;;7.57;;
71637;SDS011;59485;43.542;-5.676;2022-07-25T05:59:26;13.38;;;7.32;;
71637;SDS011;59485;43.542;-5.676;2022-07-25T06:01:51;15.83;;;8.17;;
71637;SDS011;59485;43.542;-5.676;2022-07-25T06:04:20;18.73;;;8.32;;
71637;SDS011;59485;43.542;-5.676;2022-07-25T06:06:46;18.47;;;8.50;;
71637;SDS011;59485;43.542;-5.676;2022-07-25T06:09:16;18.53;;;9.00;;
71637;SDS011;59485;43.542;-5.676;2022-07-25T06:11:46;19.58;;;8.32;;
71637;SDS011;59485;43.542;-5.676;2022-07-25T06:14:12;15.18;;;8.73;;
71637;SDS011;59485;43.542;-5.676;2022-07-25T06:16:38;18.02;;;9.00;;
71637;SDS011;59485;43.542;-5.676;2022-07-25T06:19:04;18.70;;;8.93;;
71637;SDS011;59485;43.542;-5.676;2022-07-25T06:21:30;25.10;;;9.87;;
71637;SDS011;59485;43.542;-5.676;2022-07-25T06:23:55;31.57;;;12.80;;
71637;SDS011;59485;43.542;-5.676;2022-07-25T06:26:21;26.57;;;10.23;;
71637;SDS011;59485;43.542;-5.676;2022-07-25T06:28:48;24.98;;;9.77;;
71637;SDS011;59485;43.542;-5.676;2022-07-25T06:31:14;32.73;;;7.83;;
71637;SDS011;59485;43.542;-5.676;2022-07-25T06:33:39;17.75;;;6.53;;
71637;SDS011;59485;43.542;-5.676;2022-07-25T06:36:05;13.13;;;5.27;;
71637;SDS011;59485;43.542;-5.676;2022-07-25T06:38:31;13.55;;;5.35;;
71637;SDS011;59485;43.542;-5.676;2022-07-25T06:40:56;17.80;;;5.90;;
71637;SDS011;59485;43.542;-5.676;2022-07-25T06:45:57;15.40;;;6.05;;
71637;SDS011;59485;43.542;-5.676;2022-07-25T06:48:22;15.97;;;5.97;;
71637;SDS011;59485;43.542;-5.676;2022-07-25T06:50:48;16.25;;;6.47;;
71637;SDS011;59485;43.542;-5.676;2022-07-25T06:53:14;13.93;;;6.33;;
71637;SDS011;59485;43.542;-5.676;2022-07-25T06:55:40;10.73;;;6.18;;
71637;SDS011;59485;43.542;-5.676;2022-07-25T06:58:06;14.50;;;6.30;;
71637;SDS011;59485;43.542;-5.676;2022-07-25T07:00:31;12.23;;;5.43;;
71637;SDS011;59485;43.542;-5.676;2022-07-25T07:02:57;14.47;;;5.00;;
71637;SDS011;59485;43.542;-5.676;2022-07-25T07:05:26;11.50;;;5.20;;
71637;SDS011;59485;43.542;-5.676;2022-07-25T07:07:53;13.90;;;5.95;;
71637;SDS011;59485;43.542;-5.676;2022-07-25T07:10:19;14.23;;;8.13;;
71637;SDS011;59485;43.542;-5.676;2022-07-25T07:12:48;20.27;;;8.85;;
71637;SDS011;59485;43.542;-5.676;2022-07-25T07:15:15;16.40;;;10.48;;
71637;SDS011;59485;43.542;-5.676;2022-07-25T07:17:41;16.27;;;9.73;;
71637;SDS011;59485;43.542;-5.676;2022-07-25T07:20:07;14.35;;;7.85;;
71637;SDS011;59485;43.542;-5.676;2022-07-25T07:22:43;18.80;;;9.20;;
71637;SDS011;59485;43.542;-5.676;2022-07-25T07:25:11;17.33;;;9.03;;
71637;SDS011;59485;43.542;-5.676;2022-07-25T07:27:38;20.27;;;9.00;;
71637;SDS011;59485;43.542;-5.676;2022-07-25T07:30:04;15.10;;;8.95;;
71637;SDS011;59485;43.542;-5.676;2022-07-25T07:32:30;17.00;;;9.23;;
71637;SDS011;59485;43.542;-5.676;2022-07-25T07:34:55;13.95;;;7.43;;
71637;SDS011;59485;43.542;-5.676;2022-07-25T07:37:21;13.87;;;6.83;;
71637;SDS011;59485;43.542;-5.676;2022-07-25T07:39:46;13.93;;;7.30;;
71637;SDS011;59485;43.542;-5.676;2022-07-25T07:42:11;14.53;;;7.03;;
71637;SDS011;59485;43.542;-5.676;2022-07-25T07:44:37;17.37;;;6.87;;
71637;SDS011;59485;43.542;-5.676;2022-07-25T07:47:03;16.50;;;5.17;;
71637;SDS011;59485;43.542;-5.676;2022-07-25T07:49:28;10.20;;;4.70;;
71637;SDS011;59485;43.542;-5.676;2022-07-25T07:51:54;13.10;;;4.50;;
71637;SDS011;59485;43.542;-5.676;2022-07-25T07:54:19;12.97;;;4.80;;
71637;SDS011;59485;43.542;-5.676;2022-07-25T07:57:03;10.85;;;3.47;;
71637;SDS011;59485;43.542;-5.676;2022-07-25T07:59:29;12.18;;;3.20;;
71637;SDS011;59485;43.542;-5.676;2022-07-25T08:01:54;9.43;;;4.10;;
71637;SDS011;59485;43.542;-5.676;2022-07-25T08:04:20;16.02;;;4.60;;
71637;SDS011;59485;43.542;-5.676;2022-07-25T08:06:46;13.03;;;3.47;;
71637;SDS011;59485;43.542;-5.676;2022-07-25T08:09:11;11.80;;;3.50;;
71637;SDS011;59485;43.542;-5.676;2022-07-25T08:11:37;11.52;;;3.45;;
71637;SDS011;59485;43.542;-5.676;2022-07-25T08:14:02;9.43;;;2.80;;
71637;SDS011;59485;43.542;-5.676;2022-07-25T08:16:29;8.20;;;3.25;;
71637;SDS011;59485;43.542;-5.676;2022-07-25T08:18:55;7.60;;;3.17;;
71637;SDS011;59485;43.542;-5.676;2022-07-25T08:21:20;12.75;;;3.40;;
71637;SDS011;59485;43.542;-5.676;2022-07-25T08:23:46;10.30;;;3.20;;
71637;SDS011;59485;43.542;-5.676;2022-07-25T08:26:12;10.70;;;3.63;;
71637;SDS011;59485;43.542;-5.676;2022-07-25T08:28:40;10.10;;;3.30;;
71637;SDS011;59485;43.542;-5.676;2022-07-25T08:31:06;9.98;;;3.67;;
71637;SDS011;59485;43.542;-5.676;2022-07-25T08:33:32;10.25;;;3.55;;
71637;SDS011;59485;43.542;-5.676;2022-07-25T08:35:57;14.80;;;3.87;;
71637;SDS011;59485;43.542;-5.676;2022-07-25T08:38:24;7.50;;;3.10;;
71637;SDS011;59485;43.542;-5.676;2022-07-25T08:40:51;8.13;;;3.22;;
71637;SDS011;59485;43.542;-5.676;2022-07-25T08:43:17;8.00;;;3.65;;
71637;SDS011;59485;43.542;-5.676;2022-07-25T08:45:44;6.82;;;3.67;;
71637;SDS011;59485;43.542;-5.676;2022-07-25T08:48:10;13.73;;;4.53;;
71637;SDS011;59485;43.542;-5.676;2022-07-25T08:50:36;11.15;;;4.07;;
71637;SDS011;59485;43.542;-5.676;2022-07-25T08:53:02;13.00;;;4.78;;
71637;SDS011;59485;43.542;-5.676;2022-07-25T08:55:28;5.73;;;3.20;;
71637;SDS011;59485;43.542;-5.676;2022-07-25T08:57:54;9.20;;;3.47;;
71637;SDS011;59485;43.542;-5.676;2022-07-25T09:00:20;9.27;;;3.30;;
71637;SDS011;59485;43.542;-5.676;2022-07-25T09:03:06;9.68;;;4.07;;
71637;SDS011;59485;43.542;-5.676;2022-07-25T09:05:33;9.82;;;3.58;;
71637;SDS011;59485;43.542;-5.676;2022-07-25T09:08:06;10.17;;;3.83;;
71637;SDS011;59485;43.542;-5.676;2022-07-25T09:10:36;9.20;;;3.72;;
71637;SDS011;59485;43.542;-5.676;2022-07-25T09:13:07;9.45;;;3.80;;
71637;SDS011;59485;43.542;-5.676;2022-07-25T09:15:45;9.90;;;4.10;;
71637;SDS011;59485;43.542;-5.676;2022-07-25T09:18:13;13.57;;;4.53;;
71637;SDS011;59485;43.542;-5.676;2022-07-25T09:23:10;7.82;;;3.30;;
71637;SDS011;59485;43.542;-5.676;2022-07-25T09:25:37;11.18;;;3.80;;
71637;SDS011;59485;43.542;-5.676;2022-07-25T09:28:09;8.20;;;3.10;;
71637;SDS011;59485;43.542;-5.676;2022-07-25T09:30:37;7.88;;;3.40;;
71637;SDS011;59485;43.542;-5.676;2022-07-25T09:33:03;8.23;;;2.73;;
71637;SDS011;59485;43.542;-5.676;2022-07-25T09:35:30;9.48;;;2.63;;
71637;SDS011;59485;43.542;-5.676;2022-07-25T09:38:10;11.70;;;2.97;;
71637;SDS011;59485;43.542;-5.676;2022-07-25T09:40:37;9.90;;;3.22;;
71637;SDS011;59485;43.542;-5.676;2022-07-25T09:43:03;6.60;;;2.70;;
71637;SDS011;59485;43.542;-5.676;2022-07-25T09:45:29;7.72;;;2.42;;
71637;SDS011;59485;43.542;-5.676;2022-07-25T09:47:57;9.37;;;3.90;;
71637;SDS011;59485;43.542;-5.676;2022-07-25T09:50:24;7.40;;;2.67;;
71637;SDS011;59485;43.542;-5.676;2022-07-25T09:52:52;6.43;;;2.80;;
71637;SDS011;59485;43.542;-5.676;2022-07-25T09:55:20;8.13;;;3.10;;
71637;SDS011;59485;43.542;-5.676;2022-07-25T09:57:47;6.72;;;2.65;;
71637;SDS011;59485;43.542;-5.676;2022-07-25T10:00:18;8.60;;;2.70;;
71637;SDS011;59485;43.542;-5.676;2022-07-25T10:02:48;8.32;;;2.53;;
71637;SDS011;59485;43.542;-5.676;2022-07-25T10:08:23;5.97;;;2.05;;
71637;SDS011;59485;43.542;-5.676;2022-07-25T10:10:50;5.95;;;2.28;;
71637;SDS011;59485;43.542;-5.676;2022-07-25T10:13:20;7.90;;;2.20;;
71637;SDS011;59485;43.542;-5.676;2022-07-25T10:15:54;7.47;;;2.28;;
71637;SDS011;59485;43.542;-5.676;2022-07-25T10:18:23;6.53;;;2.33;;
71637;SDS011;59485;43.542;-5.676;2022-07-25T10:20:52;10.00;;;2.50;;
71637;SDS011;59485;43.542;-5.676;2022-07-25T10:23:20;8.30;;;2.55;;
71637;SDS011;59485;43.542;-5.676;2022-07-25T10:28:49;8.45;;;2.67;;
71637;SDS011;59485;43.542;-5.676;2022-07-25T10:33:56;9.00;;;3.00;;
71637;SDS011;59485;43.542;-5.676;2022-07-25T10:36:25;11.73;;;2.92;;
71637;SDS011;59485;43.542;-5.676;2022-07-25T10:38:57;10.20;;;2.97;;
71637;SDS011;59485;43.542;-5.676;2022-07-25T10:41:25;7.05;;;3.13;;
71637;SDS011;59485;43.542;-5.676;2022-07-25T10:43:51;11.35;;;4.47;;
71637;SDS011;59485;43.542;-5.676;2022-07-25T10:46:20;8.67;;;2.90;;
71637;SDS011;59485;43.542;-5.676;2022-07-25T10:48:57;7.68;;;2.78;;
71637;SDS011;59485;43.542;-5.676;2022-07-25T10:51:28;9.52;;;3.15;;
71637;SDS011;59485;43.542;-5.676;2022-07-25T10:53:56;9.68;;;2.75;;
71637;SDS011;59485;43.542;-5.676;2022-07-25T10:56:24;9.43;;;3.00;;
71637;SDS011;59485;43.542;-5.676;2022-07-25T10:58:52;10.55;;;2.65;;
71637;SDS011;59485;43.542;-5.676;2022-07-25T11:01:29;12.38;;;2.58;;
71637;SDS011;59485;43.542;-5.676;2022-07-25T11:03:57;8.32;;;2.67;;
71637;SDS011;59485;43.542;-5.676;2022-07-25T11:08:58;8.13;;;2.65;;
71637;SDS011;59485;43.542;-5.676;2022-07-25T11:11:32;9.73;;;2.58;;
71637;SDS011;59485;43.542;-5.676;2022-07-25T11:14:02;12.38;;;3.10;;
71637;SDS011;59485;43.542;-5.676;2022-07-25T11:16:29;14.02;;;3.10;;
71637;SDS011;59485;43.542;-5.676;2022-07-25T11:18:54;10.13;;;3.13;;
71637;SDS011;59485;43.542;-5.676;2022-07-25T11:21:20;11.17;;;3.20;;
71637;SDS011;59485;43.542;-5.676;2022-07-25T11:23:51;10.45;;;3.13;;
71637;SDS011;59485;43.542;-5.676;2022-07-25T11:26:17;15.90;;;3.22;;
71637;SDS011;59485;43.542;-5.676;2022-07-25T11:28:44;11.63;;;3.63;;
71637;SDS011;59485;43.542;-5.676;2022-07-25T11:31:13;13.48;;;3.20;;
71637;SDS011;59485;43.542;-5.676;2022-07-25T11:33:42;12.60;;;3.08;;
71637;SDS011;59485;43.542;-5.676;2022-07-25T11:36:10;9.80;;;3.30;;
71637;SDS011;59485;43.542;-5.676;2022-07-25T11:38:37;13.30;;;3.45;;
71637;SDS011;59485;43.542;-5.676;2022-07-25T11:41:07;18.23;;;3.53;;
71637;SDS011;59485;43.542;-5.676;2022-07-25T11:43:32;10.57;;;3.05;;
71637;SDS011;59485;43.542;-5.676;2022-07-25T11:46:02;13.60;;;3.53;;
71637;SDS011;59485;43.542;-5.676;2022-07-25T11:48:34;13.05;;;2.70;;
71637;SDS011;59485;43.542;-5.676;2022-07-25T11:53:49;15.35;;;3.08;;
71637;SDS011;59485;43.542;-5.676;2022-07-25T11:56:16;13.77;;;3.00;;
71637;SDS011;59485;43.542;-5.676;2022-07-25T11:58:48;11.77;;;2.92;;
71637;SDS011;59485;43.542;-5.676;2022-07-25T12:01:21;13.27;;;3.22;;
71637;SDS011;59485;43.542;-5.676;2022-07-25T12:03:48;11.70;;;2.88;;
71637;SDS011;59485;43.542;-5.676;2022-07-25T12:06:14;14.20;;;3.80;;
71637;SDS011;59485;43.542;-5.676;2022-07-25T12:08:41;16.37;;;3.03;;
71637;SDS011;59485;43.542;-5.676;2022-07-25T12:11:17;16.02;;;2.83;;
71637;SDS011;59485;43.542;-5.676;2022-07-25T12:13:43;11.55;;;3.10;;
71637;SDS011;59485;43.542;-5.676;2022-07-25T12:16:09;14.03;;;3.47;;
71637;SDS011;59485;43.542;-5.676;2022-07-25T12:18:34;16.93;;;3.30;;
71637;SDS011;59485;43.542;-5.676;2022-07-25T12:21:02;12.75;;;3.30;;
71637;SDS011;59485;43.542;-5.676;2022-07-25T12:23:27;14.20;;;3.33;;
71637;SDS011;59485;43.542;-5.676;2022-07-25T12:25:53;17.57;;;3.37;;
71637;SDS011;59485;43.542;-5.676;2022-07-25T12:28:19;12.73;;;3.03;;
71637;SDS011;59485;43.542;-5.676;2022-07-25T12:30:45;11.80;;;3.63;;
71637;SDS011;59485;43.542;-5.676;2022-07-25T12:33:11;11.90;;;3.40;;
71637;SDS011;59485;43.542;-5.676;2022-07-25T12:35:38;15.00;;;2.80;;
71637;SDS011;59485;43.542;-5.676;2022-07-25T12:38:05;12.02;;;2.92;;
71637;SDS011;59485;43.542;-5.676;2022-07-25T12:40:31;14.40;;;3.83;;
71637;SDS011;59485;43.542;-5.676;2022-07-25T12:42:57;13.10;;;3.40;;
71637;SDS011;59485;43.542;-5.676;2022-07-25T12:45:23;12.85;;;3.30;;
71637;SDS011;59485;43.542;-5.676;2022-07-25T12:47:49;10.53;;;3.27;;
71637;SDS011;59485;43.542;-5.676;2022-07-25T12:50:15;12.10;;;3.67;;
71637;SDS011;59485;43.542;-5.676;2022-07-25T12:52:42;16.08;;;3.85;;
71637;SDS011;59485;43.542;-5.676;2022-07-25T12:55:13;18.30;;;3.20;;
71637;SDS011;59485;43.542;-5.676;2022-07-25T12:57:40;14.00;;;3.53;;
71637;SDS011;59485;43.542;-5.676;2022-07-25T13:00:07;9.80;;;2.75;;
71637;SDS011;59485;43.542;-5.676;2022-07-25T13:02:35;13.73;;;3.23;;
71637;SDS011;59485;43.542;-5.676;2022-07-25T13:05:01;12.43;;;2.72;;
71637;SDS011;59485;43.542;-5.676;2022-07-25T13:07:26;15.57;;;3.00;;
71637;SDS011;59485;43.542;-5.676;2022-07-25T13:09:52;10.40;;;2.20;;
71637;SDS011;59485;43.542;-5.676;2022-07-25T13:12:18;14.52;;;2.38;;
71637;SDS011;59485;43.542;-5.676;2022-07-25T13:14:44;10.63;;;1.80;;
71637;SDS011;59485;43.542;-5.676;2022-07-25T13:17:10;8.50;;;2.00;;
71637;SDS011;59485;43.542;-5.676;2022-07-25T13:19:35;9.63;;;2.20;;
71637;SDS011;59485;43.542;-5.676;2022-07-25T13:22:01;10.63;;;2.53;;
71637;SDS011;59485;43.542;-5.676;2022-07-25T13:24:26;9.80;;;2.73;;
71637;SDS011;59485;43.542;-5.676;2022-07-25T13:26:52;11.23;;;2.10;;
71637;SDS011;59485;43.542;-5.676;2022-07-25T13:29:17;9.30;;;2.10;;
71637;SDS011;59485;43.542;-5.676;2022-07-25T13:31:43;7.57;;;1.83;;
71637;SDS011;59485;43.542;-5.676;2022-07-25T13:34:08;13.03;;;1.87;;
71637;SDS011;59485;43.542;-5.676;2022-07-25T13:36:34;9.85;;;2.08;;
71637;SDS011;59485;43.542;-5.676;2022-07-25T13:39:02;8.90;;;1.87;;
71637;SDS011;59485;43.542;-5.676;2022-07-25T13:41:28;14.10;;;2.00;;
71637;SDS011;59485;43.542;-5.676;2022-07-25T13:43:53;13.87;;;3.03;;
71637;SDS011;59485;43.542;-5.676;2022-07-25T13:46:19;11.70;;;2.58;;
71637;SDS011;59485;43.542;-5.676;2022-07-25T13:48:45;8.63;;;2.17;;
71637;SDS011;59485;43.542;-5.676;2022-07-25T13:51:11;7.57;;;2.03;;
71637;SDS011;59485;43.542;-5.676;2022-07-25T13:53:36;9.40;;;2.27;;
71637;SDS011;59485;43.542;-5.676;2022-07-25T13:56:02;7.88;;;1.70;;
71637;SDS011;59485;43.542;-5.676;2022-07-25T13:58:27;10.20;;;2.93;;
71637;SDS011;59485;43.542;-5.676;2022-07-25T14:00:53;9.48;;;2.92;;
71637;SDS011;59485;43.542;-5.676;2022-07-25T14:03:19;12.23;;;1.53;;
71637;SDS011;59485;43.542;-5.676;2022-07-25T14:05:45;10.13;;;2.55;;
71637;SDS011;59485;43.542;-5.676;2022-07-25T14:08:10;10.30;;;1.70;;
71637;SDS011;59485;43.542;-5.676;2022-07-25T14:10:36;9.43;;;1.95;;
71637;SDS011;59485;43.542;-5.676;2022-07-25T14:13:02;8.23;;;1.97;;
71637;SDS011;59485;43.542;-5.676;2022-07-25T14:15:28;6.70;;;2.15;;
71637;SDS011;59485;43.542;-5.676;2022-07-25T14:17:53;8.03;;;2.30;;
71637;SDS011;59485;43.542;-5.676;2022-07-25T14:20:19;11.38;;;2.47;;
71637;SDS011;59485;43.542;-5.676;2022-07-25T14:22:44;8.23;;;2.03;;
71637;SDS011;59485;43.542;-5.676;2022-07-25T14:25:10;8.50;;;2.43;;
71637;SDS011;59485;43.542;-5.676;2022-07-25T14:27:36;13.55;;;2.83;;
71637;SDS011;59485;43.542;-5.676;2022-07-25T14:30:03;10.18;;;2.33;;
71637;SDS011;59485;43.542;-5.676;2022-07-25T14:32:30;8.27;;;2.60;;
71637;SDS011;59485;43.542;-5.676;2022-07-25T14:34:55;9.23;;;2.77;;
71637;SDS011;59485;43.542;-5.676;2022-07-25T14:37:21;11.43;;;2.70;;
71637;SDS011;59485;43.542;-5.676;2022-07-25T14:39:47;11.47;;;2.60;;
71637;SDS011;59485;43.542;-5.676;2022-07-25T14:42:14;7.18;;;2.25;;